| Date | Time | Temp. (oF) | Dew Point (oF) | Rel. Hum. (%) | Press. (in.) | Wind Dir. | Wind Speed (mph) | Hourly Rainfall (in.) |
|
|---|---|---|---|---|---|---|---|---|---|
| 1 | 11/18 | 00:00 | 42 | 32 | 68 | 30.33 | E | 2 | 0.00 |
| 2 | 11/17 | 23:00 | 44 | 31 | 61 | 30.32 | E | 2 | 0.00 |
| 3 | 11/17 | 22:00 | 44 | 31 | 61 | 30.31 | ESE | 5 | 0.00 |
| 4 | 11/17 | 21:00 | 46 | 31 | 57 | 30.29 | ENE | 3 | 0.00 |
| 5 | 11/17 | 20:00 | 48 | 30 | 50 | 30.28 | E | 0 | 0.00 |
| 6 | 11/17 | 19:00 | 51 | 30 | 46 | 30.26 | E | 1 | 0.00 |
| 7 | 11/17 | 18:00 | 52 | 30 | 43 | 30.25 | E | 0 | 0.00 |
| 8 | 11/17 | 17:00 | 54 | 28 | 38 | 30.23 | SE | 2 | 0.00 |
| 9 | 11/17 | 16:00 | 56 | 30 | 38 | 30.21 | ESE | 4 | 0.00 |
| 10 | 11/17 | 15:00 | 59 | 33 | 39 | 30.21 | W | 2 | 0.00 |
| 11 | 11/17 | 14:00 | 58 | 33 | 39 | 30.21 | SE | 3 | 0.00 |
| 12 | 11/17 | 13:00 | 57 | 33 | 41 | 30.23 | ENE | 6 | 0.00 |
| 13 | 11/17 | 12:00 | 55 | 32 | 43 | 30.25 | ENE | 6 | 0.00 |
| 14 | 11/17 | 11:00 | 54 | 34 | 47 | 30.27 | SSE | 5 | 0.00 |
| 15 | 11/17 | 10:00 | 51 | 32 | 50 | 30.27 | NE | 10 | 0.00 |
| 16 | 11/17 | 09:00 | 49 | 38 | 67 | 30.26 | NNE | 4 | 0.00 |
| 17 | 11/17 | 08:00 | 39 | 37 | 96 | 30.26 | NW | 0 | 0.00 |
| 18 | 11/17 | 07:00 | 37 | 35 | 94 | 30.23 | NW | 0 | 0.00 |
| 19 | 11/17 | 06:00 | 38 | 35 | 92 | 30.22 | NW | 0 | 0.00 |
| 20 | 11/17 | 05:00 | 40 | 37 | 92 | 30.20 | NW | 0 | 0.00 |
| 21 | 11/17 | 04:00 | 40 | 37 | 89 | 30.19 | NNW | 0 | 0.00 |
| 22 | 11/17 | 03:00 | 39 | 36 | 91 | 30.18 | NNW | 0 | 0.00 |
| 23 | 11/17 | 02:00 | 41 | 37 | 86 | 30.17 | NNW | 0 | 0.00 |
| 24 | 11/17 | 01:00 | 41 | 37 | 86 | 30.15 | NNE | 0 | 0.00 |